Time;durP1;ratioP1;P1;durP2;ratioP2;P2;SDS_P1;SDS_P2;PMS_P1;PMS_P2;Temp;Humidity;BMP_temperature;BMP_pressure;BME280_temperature;BME280_humidity;BME280_pressure;Samples;Min_cycle;Max_cycle;Signal;HPM_P1;HPM_P2
2021/03/05 12:04:11;;;;;;;36.33;34.85;;;;;;;;;;5111298;27;20543;-72
2021/03/05 12:06:37;;;;;;;36.88;35.38;;;;;;;;;;5111108;28;20216;-73
2021/03/05 12:09:04;;;;;;;37.53;36.13;;;;;;;;;;5111052;28;20262;-73
2021/03/05 12:11:30;;;;;;;37.80;36.35;;;;;;;;;;5111154;28;20167;-73
2021/03/05 12:13:55;;;;;;;39.03;37.42;;;;;;;;;;5111051;28;20175;-73
2021/03/05 12:16:21;;;;;;;40.22;38.60;;;;;;;;;;5110995;28;20171;-73
2021/03/05 12:18:47;;;;;;;39.20;37.70;;;;;;;;;;5110928;28;20624;-73
2021/03/05 12:21:13;;;;;;;36.85;35.45;;;;;;;;;;5110891;28;20254;-73
2021/03/05 12:23:40;;;;;;;34.80;33.50;;;;;;;;;;5110687;28;20191;-73
2021/03/05 12:26:06;;;;;;;34.38;33.08;;;;;;;;;;5110788;28;20205;-73
2021/03/05 12:28:32;;;;;;;35.67;34.38;;;;;;;;;;5110749;28;20179;-73
2021/03/05 12:30:57;;;;;;;34.40;33.05;;;;;;;;;;5109457;28;20179;-73
2021/03/05 12:33:23;;;;;;;33.60;32.40;;;;;;;;;;5110634;28;20168;-73
2021/03/05 12:35:49;;;;;;;33.20;32.00;;;;;;;;;;5110649;28;20167;-73
2021/03/05 12:38:15;;;;;;;33.97;32.70;;;;;;;;;;5110486;28;20167;-73
2021/03/05 12:40:41;;;;;;;33.65;32.35;;;;;;;;;;5110765;28;20168;-73
2021/03/05 12:43:07;;;;;;;34.90;33.50;;;;;;;;;;5110422;28;20195;-73
2021/03/05 12:45:33;;;;;;;32.35;31.25;;;;;;;;;;5110968;28;20513;-73
2021/03/05 12:48:00;;;;;;;33.15;31.85;;;;;;;;;;5109342;28;20581;-73
2021/03/05 12:50:26;;;;;;;34.35;33.15;;;;;;;;;;5110395;28;20185;-73
2021/03/05 12:52:52;;;;;;;33.47;32.17;;;;;;;;;;5110273;28;20176;-73
2021/03/05 12:55:18;;;;;;;33.78;32.38;;;;;;;;;;5110284;28;20242;-73
2021/03/05 12:57:44;;;;;;;34.63;33.40;;;;;;;;;;5110255;28;20221;-73
2021/03/05 13:00:11;;;;;;;34.40;33.10;;;;;;;;;;5110171;28;20249;-73
2021/03/05 13:02:37;;;;;;;33.97;32.78;;;;;;;;;;5109772;28;20223;-73
2021/03/05 13:05:03;;;;;;;33.00;31.85;;;;;;;;;;5110058;28;20564;-73
2021/03/05 13:07:32;;;;;;;34.15;32.95;;;;;;;;;;5109955;28;20191;-73
2021/03/05 13:09:58;;;;;;;35.85;34.45;;;;;;;;;;5109925;28;20167;-73
2021/03/05 13:12:24;;;;;;;32.83;31.63;;;;;;;;;;5109803;28;20244;-73
2021/03/05 13:14:50;;;;;;;30.15;29.15;;;;;;;;;;5100332;28;20203;-73
2021/03/05 13:17:16;;;;;;;32.45;31.25;;;;;;;;;;5096329;28;20168;-73
2021/03/05 13:19:42;;;;;;;30.83;29.73;;;;;;;;;;5096181;28;20629;-73
2021/03/05 13:22:08;;;;;;;31.45;30.25;;;;;;;;;;5096180;28;20168;-71
2021/03/05 13:24:34;;;;;;;32.88;31.67;;;;;;;;;;5095987;28;20251;-71
2021/03/05 13:27:00;;;;;;;31.25;30.15;;;;;;;;;;5095723;28;20617;-71
2021/03/05 13:29:26;;;;;;;32.13;31.02;;;;;;;;;;5095897;28;20171;-71
2021/03/05 13:31:53;;;;;;;32.25;31.05;;;;;;;;;;5095862;28;20616;-72
2021/03/05 13:34:19;;;;;;;29.02;28.05;;;;;;;;;;5095904;28;20156;-73
2021/03/05 13:36:49;;;;;;;31.45;30.35;;;;;;;;;;5094236;28;20171;-74
2021/03/05 13:39:15;;;;;;;32.05;30.85;;;;;;;;;;5095430;28;20242;-74
2021/03/05 13:41:42;;;;;;;33.45;32.25;;;;;;;;;;5095785;28;20175;-73
2021/03/05 13:44:08;;;;;;;32.15;30.95;;;;;;;;;;5095716;28;20171;-72
2021/03/05 13:46:34;;;;;;;33.08;31.88;;;;;;;;;;5095668;28;20171;-73
2021/03/05 13:49:00;;;;;;;32.35;30.63;;;;;;;;;;5095302;28;20174;-73
2021/03/05 13:51:26;;;;;;;30.60;29.45;;;;;;;;;;5095423;28;20171;-73
2021/03/05 13:53:52;;;;;;;30.67;29.58;;;;;;;;;;5095300;28;20230;-72
2021/03/05 13:56:19;;;;;;;31.42;30.27;;;;;;;;;;5095397;28;20686;-72
2021/03/05 13:58:45;;;;;;;30.27;29.25;;;;;;;;;;5094191;28;20221;-72
2021/03/05 14:01:11;;;;;;;29.33;28.33;;;;;;;;;;5095468;28;20164;-72
2021/03/05 14:03:37;;;;;;;30.08;29.08;;;;;;;;;;5095307;28;20608;-72
2021/03/05 14:06:03;;;;;;;30.23;29.13;;;;;;;;;;5095214;28;20168;-72
2021/03/05 14:08:29;;;;;;;30.45;29.45;;;;;;;;;;5095150;28;20223;-72
2021/03/05 14:10:55;;;;;;;31.15;30.05;;;;;;;;;;5093944;28;20172;-72
2021/03/05 14:13:21;;;;;;;30.45;29.45;;;;;;;;;;5093112;28;20675;-72
2021/03/05 14:15:47;;;;;;;30.33;29.23;;;;;;;;;;5094280;28;20229;-71
2021/03/05 14:18:13;;;;;;;28.83;27.88;;;;;;;;;;5095019;28;20282;-72
2021/03/05 14:20:39;;;;;;;29.58;28.58;;;;;;;;;;5095079;28;20160;-72
2021/03/05 14:23:05;;;;;;;30.48;29.42;;;;;;;;;;5094936;28;20179;-71
2021/03/05 14:25:31;;;;;;;30.30;29.20;;;;;;;;;;5093983;28;20190;-72
2021/03/05 14:27:57;;;;;;;29.42;28.42;;;;;;;;;;5094616;28;20625;-72
2021/03/05 14:30:23;;;;;;;30.75;29.52;;;;;;;;;;5093444;28;20311;-72
2021/03/05 14:32:49;;;;;;;30.88;29.77;;;;;;;;;;5094592;28;20214;-72
2021/03/05 14:35:16;;;;;;;31.60;30.50;;;;;;;;;;5094769;28;20167;-72
2021/03/05 14:37:42;;;;;;;30.67;29.48;;;;;;;;;;5094703;28;20214;-72
2021/03/05 14:40:08;;;;;;;28.75;27.83;;;;;;;;;;5094779;28;20633;-72
2021/03/05 14:42:34;;;;;;;30.75;29.70;;;;;;;;;;5094602;28;20168;-72
2021/03/05 14:45:01;;;;;;;30.90;29.85;;;;;;;;;;5093279;28;20659;-72
2021/03/05 14:47:27;;;;;;;31.88;30.77;;;;;;;;;;5093214;28;20178;-72
2021/03/05 14:49:53;;;;;;;31.88;30.67;;;;;;;;;;5094636;28;20171;-72
2021/03/05 14:52:21;;;;;;;30.73;29.70;;;;;;;;;;5094398;28;20195;-72
2021/03/05 14:54:47;;;;;;;32.63;31.33;;;;;;;;;;5093143;28;20164;-72
2021/03/05 14:57:13;;;;;;;30.15;29.15;;;;;;;;;;5094349;28;20246;-74
2021/03/05 14:59:39;;;;;;;29.63;28.52;;;;;;;;;;5094232;28;20164;-74
2021/03/05 15:02:05;;;;;;;29.83;28.83;;;;;;;;;;5094343;28;20771;-74
2021/03/05 15:04:31;;;;;;;29.20;28.20;;;;;;;;;;5094263;28;20258;-75
2021/03/05 15:06:57;;;;;;;30.23;29.23;;;;;;;;;;5093997;28;20176;-74
2021/03/05 15:09:23;;;;;;;29.92;28.92;;;;;;;;;;5094196;28;20530;-75
2021/03/05 15:11:49;;;;;;;30.63;29.52;;;;;;;;;;5093918;28;20613;-75
2021/03/05 15:14:15;;;;;;;29.58;28.58;;;;;;;;;;5092686;28;20171;-75
2021/03/05 15:16:41;;;;;;;30.35;29.35;;;;;;;;;;5092789;28;20179;-75
2021/03/05 15:19:07;;;;;;;31.13;29.92;;;;;;;;;;5092639;28;20258;-75
2021/03/05 15:21:33;;;;;;;30.83;29.73;;;;;;;;;;5093984;28;20164;-75
2021/03/05 15:23:59;;;;;;;30.85;29.75;;;;;;;;;;5092569;28;20583;-72
2021/03/05 15:26:25;;;;;;;29.15;28.15;;;;;;;;;;5092616;28;20668;-72
2021/03/05 15:28:51;;;;;;;29.67;28.67;;;;;;;;;;5093608;28;20246;-74
2021/03/05 15:31:17;;;;;;;29.02;28.02;;;;;;;;;;5093774;28;20636;-74
2021/03/05 15:33:43;;;;;;;30.48;29.27;;;;;;;;;;5093636;28;20203;-75
2021/03/05 15:36:10;;;;;;;30.70;29.55;;;;;;;;;;5093963;28;20556;-74
2021/03/05 15:38:36;;;;;;;28.95;28.02;;;;;;;;;;5093494;28;20163;-74
2021/03/05 15:41:03;;;;;;;29.70;28.67;;;;;;;;;;5092439;28;20595;-74
2021/03/05 15:43:29;;;;;;;30.33;29.02;;;;;;;;;;5093520;28;20184;-74
2021/03/05 15:45:55;;;;;;;29.80;28.80;;;;;;;;;;5093616;28;20248;-71
2021/03/05 15:48:21;;;;;;;30.05;29.05;;;;;;;;;;5093526;28;20651;-71
2021/03/05 15:50:47;;;;;;;29.40;28.40;;;;;;;;;;5093561;28;20168;-70
2021/03/05 15:53:13;;;;;;;29.75;28.73;;;;;;;;;;5093375;28;20188;-70
2021/03/05 15:55:39;;;;;;;29.33;28.23;;;;;;;;;;5093490;28;20164;-70
2021/03/05 15:58:05;;;;;;;30.02;28.92;;;;;;;;;;5093471;28;20506;-71
2021/03/05 16:00:31;;;;;;;30.63;29.58;;;;;;;;;;5093446;28;20164;-73
2021/03/05 16:02:57;;;;;;;30.00;29.00;;;;;;;;;;5093220;28;20809;-73
2021/03/05 16:05:23;;;;;;;28.48;27.58;;;;;;;;;;5092101;28;20545;-73
2021/03/05 16:07:50;;;;;;;29.77;28.77;;;;;;;;;;5093309;28;20649;-73
2021/03/05 16:10:16;;;;;;;29.80;28.70;;;;;;;;;;5093357;28;20176;-70
2021/03/05 16:12:42;;;;;;;28.38;27.45;;;;;;;;;;5093159;28;20198;-70
2021/03/05 16:15:08;;;;;;;29.38;28.38;;;;;;;;;;5093295;28;20164;-71
2021/03/05 16:17:35;;;;;;;29.80;28.80;;;;;;;;;;5093255;28;20167;-71
2021/03/05 16:20:01;;;;;;;29.55;28.55;;;;;;;;;;5093270;28;20221;-70
2021/03/05 16:22:27;;;;;;;29.65;28.55;;;;;;;;;;5093291;28;20176;-70
2021/03/05 16:24:53;;;;;;;29.50;28.50;;;;;;;;;;5093260;28;20178;-70
2021/03/05 16:27:19;;;;;;;29.92;28.90;;;;;;;;;;5093084;28;20172;-71
2021/03/05 16:29:45;;;;;;;28.77;27.85;;;;;;;;;;5093207;28;20225;-70
2021/03/05 16:32:11;;;;;;;30.05;28.88;;;;;;;;;;5092017;28;20172;-71
2021/03/05 16:34:39;;;;;;;28.95;27.95;;;;;;;;;;5093149;28;20164;-71
2021/03/05 16:37:05;;;;;;;30.10;29.10;;;;;;;;;;5093150;28;20156;-71
2021/03/05 16:39:31;;;;;;;29.75;28.75;;;;;;;;;;5093110;28;20204;-70
2021/03/05 16:41:57;;;;;;;29.27;28.27;;;;;;;;;;5093033;28;20164;-70
2021/03/05 16:44:23;;;;;;;30.25;28.95;;;;;;;;;;5093044;28;20621;-71
2021/03/05 16:46:49;;;;;;;28.13;27.23;;;;;;;;;;5091890;28;20643;-70
2021/03/05 16:49:15;;;;;;;29.13;28.13;;;;;;;;;;5092635;28;20168;-71
2021/03/05 16:51:42;;;;;;;28.23;27.33;;;;;;;;;;5096872;28;20187;-71
2021/03/05 16:54:08;;;;;;;29.02;28.05;;;;;;;;;;5096720;28;20245;-71
